createdAt,value
2018-10-17T00:01:12.316Z,13.83
2018-10-17T00:03:41.076Z,13.84
2018-10-17T00:06:09.870Z,13.85
2018-10-17T00:08:38.569Z,13.85
2018-10-17T00:11:07.288Z,13.81
2018-10-17T00:13:35.994Z,13.84
2018-10-17T00:16:04.682Z,13.81
2018-10-17T00:18:33.464Z,13.85
2018-10-17T00:21:02.353Z,13.82
2018-10-17T00:23:31.057Z,13.84
2018-10-17T00:25:59.747Z,13.85
2018-10-17T00:28:28.449Z,13.84
2018-10-17T00:30:57.151Z,13.85
2018-10-17T00:33:25.844Z,13.86
2018-10-17T00:35:54.625Z,13.81
2018-10-17T00:38:23.316Z,13.85
2018-10-17T00:40:52.035Z,13.83
2018-10-17T00:43:20.736Z,13.83
2018-10-17T00:45:49.432Z,13.81
2018-10-17T00:48:18.140Z,13.81
2018-10-17T00:50:46.851Z,13.80
2018-10-17T00:53:15.573Z,13.78
2018-10-17T00:55:44.225Z,13.77
2018-10-17T00:58:12.911Z,13.77
2018-10-17T01:00:41.687Z,13.77
2018-10-17T01:03:10.376Z,13.77
2018-10-17T01:05:39.060Z,13.77
2018-10-17T01:08:07.749Z,13.76
2018-10-17T01:10:36.452Z,13.78
2018-10-17T01:13:05.236Z,13.78
2018-10-17T01:15:33.910Z,13.79
2018-10-17T01:18:02.605Z,13.77
2018-10-17T01:20:31.312Z,13.76
2018-10-17T01:22:59.992Z,13.78
2018-10-17T01:25:28.696Z,13.76
2018-10-17T01:27:57.404Z,13.76
2018-10-17T01:30:26.169Z,13.76
2018-10-17T01:32:54.893Z,13.72
2018-10-17T01:35:23.611Z,13.72
2018-10-17T01:37:52.296Z,13.75
2018-10-17T01:40:21.009Z,13.72
2018-10-17T01:42:49.715Z,13.75
2018-10-17T01:45:18.407Z,13.75
2018-10-17T01:47:47.099Z,13.76
2018-10-17T01:50:15.787Z,13.76
2018-10-17T01:52:44.460Z,13.76
2018-10-17T01:55:13.176Z,13.76
2018-10-17T01:57:41.839Z,13.76
2018-10-17T02:00:10.540Z,13.75
2018-10-17T02:02:39.231Z,13.72
2018-10-17T02:05:07.998Z,13.69
2018-10-17T02:07:36.679Z,13.67
2018-10-17T02:10:05.404Z,13.66
2018-10-17T02:12:34.084Z,13.66
2018-10-17T02:15:02.785Z,13.65
2018-10-17T02:17:31.506Z,13.65
2018-10-17T02:20:00.188Z,13.65
2018-10-17T02:22:28.867Z,13.65
2018-10-17T02:24:57.577Z,13.62
2018-10-17T02:27:26.232Z,13.63
2018-10-17T02:29:54.917Z,13.65
2018-10-17T02:32:23.690Z,13.64
2018-10-17T02:34:57.633Z,13.64
2018-10-17T02:37:26.305Z,13.65
2018-10-17T02:39:54.977Z,13.65
2018-10-17T02:42:23.760Z,13.66
2018-10-17T02:44:52.573Z,13.66
2018-10-17T02:47:21.267Z,13.65
2018-10-17T02:49:49.956Z,13.65
2018-10-17T02:52:18.644Z,13.65
2018-10-17T02:54:47.338Z,13.66
2018-10-17T02:57:16.019Z,13.66
2018-10-17T02:59:44.712Z,13.66
2018-10-17T03:02:13.387Z,13.66
2018-10-17T03:04:42.065Z,13.65
2018-10-17T03:07:10.843Z,13.64
2018-10-17T03:09:39.472Z,13.64
2018-10-17T03:12:08.187Z,13.65
2018-10-17T03:14:36.958Z,13.64
2018-10-17T03:17:05.755Z,13.65
2018-10-17T03:19:34.419Z,13.63
2018-10-17T03:22:03.164Z,13.60
2018-10-17T03:24:31.828Z,13.62
2018-10-17T03:27:00.524Z,13.61
2018-10-17T03:29:29.234Z,13.59
2018-10-17T03:31:57.952Z,13.55
2018-10-17T03:34:26.648Z,13.56
2018-10-17T03:36:55.373Z,13.53
2018-10-17T03:39:24.020Z,13.50
2018-10-17T03:41:52.696Z,13.48
2018-10-17T03:44:21.403Z,13.47
2018-10-17T03:46:50.092Z,13.45
2018-10-17T03:49:18.861Z,13.43
2018-10-17T03:51:47.483Z,13.38
2018-10-17T03:54:16.135Z,13.40
2018-10-17T03:56:44.797Z,13.39
2018-10-17T03:59:13.539Z,13.36
2018-10-17T04:01:42.195Z,13.35
2018-10-17T04:04:10.903Z,13.35
2018-10-17T04:06:39.611Z,13.33
2018-10-17T04:09:09.249Z,13.33
2018-10-17T04:11:37.917Z,13.31
2018-10-17T04:14:06.645Z,13.31
2018-10-17T04:16:35.315Z,13.28
2018-10-17T04:19:04.080Z,13.27
2018-10-17T04:21:32.723Z,13.26
2018-10-17T04:24:01.397Z,13.27
2018-10-17T04:26:30.126Z,13.25
2018-10-17T04:28:58.837Z,13.24
2018-10-17T04:31:27.514Z,13.22
2018-10-17T04:33:56.200Z,13.22
2018-10-17T04:36:24.898Z,13.21
2018-10-17T04:38:53.568Z,13.22
2018-10-17T04:41:22.248Z,13.21
2018-10-17T04:43:50.924Z,13.22
2018-10-17T04:46:19.584Z,13.22
2018-10-17T04:48:48.259Z,13.21
2018-10-17T04:51:16.943Z,13.21
2018-10-17T04:53:45.659Z,13.20
2018-10-17T04:56:14.342Z,13.19
2018-10-17T04:58:43.012Z,13.19
2018-10-17T05:01:11.734Z,13.17
2018-10-17T05:03:40.409Z,13.18
2018-10-17T05:06:09.092Z,13.16
2018-10-17T05:08:37.805Z,13.17
2018-10-17T05:11:06.944Z,13.15
2018-10-17T05:13:35.617Z,13.13
2018-10-17T05:16:04.310Z,13.13
2018-10-17T05:18:33.028Z,13.12
2018-10-17T05:21:01.713Z,13.12
2018-10-17T05:23:30.371Z,13.10
2018-10-17T05:25:59.032Z,13.10
2018-10-17T05:28:27.671Z,13.10
2018-10-17T05:30:56.361Z,13.08
2018-10-17T05:33:25.035Z,13.11
2018-10-17T05:35:53.730Z,13.08
2018-10-17T05:38:22.742Z,13.08
2018-10-17T05:40:51.465Z,13.07
2018-10-17T05:43:20.119Z,13.05
2018-10-17T05:45:48.812Z,13.08
2018-10-17T05:48:17.472Z,13.05
2018-10-17T05:50:46.271Z,13.05
2018-10-17T05:53:15.084Z,13.07
2018-10-17T05:55:43.691Z,13.06
2018-10-17T05:58:12.452Z,13.06
2018-10-17T06:00:41.142Z,13.01
2018-10-17T06:03:09.808Z,13.06
2018-10-17T06:05:38.511Z,13.04
2018-10-17T06:08:07.272Z,13.07
2018-10-17T06:10:36.020Z,13.06
2018-10-17T06:13:04.814Z,13.07
2018-10-17T06:15:33.499Z,13.04
2018-10-17T06:18:02.175Z,13.05
2018-10-17T06:20:30.919Z,13.05
2018-10-17T06:22:59.676Z,13.01
2018-10-17T06:25:28.385Z,12.99
2018-10-17T06:27:57.024Z,13.02
2018-10-17T06:30:25.751Z,13.03
2018-10-17T06:32:54.608Z,13.03
2018-10-17T06:35:23.315Z,13.03
2018-10-17T06:37:52.008Z,13.02
2018-10-17T06:40:20.790Z,13.03
2018-10-17T06:42:49.484Z,13.02
2018-10-17T06:45:18.196Z,13.02
2018-10-17T06:47:46.892Z,13.00
2018-10-17T06:50:15.577Z,12.98
2018-10-17T06:52:44.280Z,12.98
2018-10-17T06:55:13.027Z,12.97
2018-10-17T06:57:41.707Z,12.97
2018-10-17T07:00:11.300Z,12.97
2018-10-17T07:02:40.016Z,12.96
2018-10-17T07:05:09.912Z,12.97
2018-10-17T07:07:38.588Z,12.99
2018-10-17T07:10:07.359Z,12.98
2018-10-17T07:12:36.101Z,13.01
2018-10-17T07:15:05.502Z,13.02
2018-10-17T07:17:34.202Z,13.03
2018-10-17T07:20:03.001Z,13.04
2018-10-17T07:22:31.697Z,13.05
2018-10-17T07:25:00.455Z,13.08
2018-10-17T07:27:29.112Z,13.09
2018-10-17T07:29:57.904Z,13.10
2018-10-17T07:32:26.627Z,13.15
2018-10-17T07:34:55.354Z,13.20
2018-10-17T07:37:24.123Z,13.22
2018-10-17T07:39:52.847Z,13.25
2018-10-17T07:42:21.532Z,13.27
2018-10-17T07:44:50.237Z,13.29
2018-10-17T07:47:18.926Z,13.30
2018-10-17T07:49:47.628Z,13.30
2018-10-17T07:52:16.315Z,13.32
2018-10-17T07:54:45.015Z,13.32
2018-10-17T07:57:13.726Z,13.33
2018-10-17T07:59:42.492Z,13.33
2018-10-17T08:02:11.164Z,13.33
2018-10-17T08:04:39.864Z,13.33
2018-10-17T08:07:08.546Z,13.34
2018-10-17T08:09:37.236Z,13.33
2018-10-17T08:12:05.926Z,13.34
2018-10-17T08:14:34.607Z,13.36
2018-10-17T08:17:03.322Z,13.37
2018-10-17T08:19:32.036Z,13.40
2018-10-17T08:22:00.744Z,13.42
2018-10-17T08:24:29.436Z,13.46
2018-10-17T08:26:58.144Z,13.48
2018-10-17T08:29:27.383Z,13.49
2018-10-17T08:31:56.153Z,13.50
2018-10-17T08:34:24.849Z,13.47
2018-10-17T08:36:53.640Z,13.50
2018-10-17T08:39:22.301Z,13.48
2018-10-17T08:41:50.987Z,13.49
2018-10-17T08:44:19.822Z,13.49
2018-10-17T08:46:48.552Z,13.51
2018-10-17T08:49:17.271Z,13.52
2018-10-17T08:51:45.999Z,13.54
2018-10-17T08:54:14.724Z,13.53
2018-10-17T08:56:43.488Z,13.61
2018-10-17T08:59:12.183Z,13.66
2018-10-17T09:01:40.893Z,13.73
2018-10-17T09:04:09.633Z,13.82
2018-10-17T09:06:38.322Z,13.89
2018-10-17T09:09:11.686Z,13.98
2018-10-17T09:11:40.982Z,14.06
2018-10-17T09:14:10.115Z,14.05
2018-10-17T09:16:39.298Z,14.17
2018-10-17T09:19:08.372Z,14.26
2018-10-17T09:21:37.356Z,14.36
2018-10-17T09:24:06.081Z,14.47
2018-10-17T09:26:34.947Z,14.64
2018-10-17T09:29:03.986Z,14.83
2018-10-17T09:31:32.733Z,15.02
2018-10-17T09:34:01.526Z,15.23
2018-10-17T09:36:30.316Z,15.33
2018-10-17T09:38:59.056Z,15.42
2018-10-17T09:41:27.769Z,15.54
2018-10-17T09:43:56.523Z,15.61
2018-10-17T09:46:25.315Z,15.65
2018-10-17T09:48:54.101Z,15.69
2018-10-17T09:51:22.828Z,15.73
2018-10-17T09:53:51.563Z,15.75
2018-10-17T09:56:20.316Z,15.75
2018-10-17T09:58:49.035Z,15.76
2018-10-17T10:01:22.866Z,15.79
2018-10-17T10:03:51.647Z,15.83
2018-10-17T10:06:20.346Z,15.88
2018-10-17T10:08:49.049Z,15.93
2018-10-17T10:11:17.732Z,15.97
2018-10-17T10:13:46.482Z,16.04
2018-10-17T10:16:15.248Z,16.09
2018-10-17T10:18:43.925Z,16.11
2018-10-17T10:21:12.671Z,16.12
2018-10-17T10:23:41.481Z,16.14
2018-10-17T10:26:10.168Z,16.17
2018-10-17T10:28:38.990Z,16.22
2018-10-17T10:31:07.665Z,16.30
2018-10-17T10:33:36.362Z,16.36
2018-10-17T10:36:05.206Z,16.42
2018-10-17T10:38:33.855Z,16.46
2018-10-17T10:41:02.545Z,16.47
2018-10-17T10:43:31.252Z,16.53
2018-10-17T10:46:00.038Z,16.53
2018-10-17T10:48:28.980Z,16.50
2018-10-17T10:50:57.721Z,16.51
2018-10-17T10:53:26.408Z,16.54
2018-10-17T10:55:55.212Z,16.57
2018-10-17T10:58:24.215Z,16.56
2018-10-17T11:00:53.689Z,16.57
2018-10-17T11:03:22.412Z,16.58
2018-10-17T11:05:51.170Z,16.59
2018-10-17T11:08:19.858Z,16.62
2018-10-17T11:10:48.569Z,16.70
2018-10-17T11:13:17.231Z,16.73
2018-10-17T11:15:45.922Z,16.70
2018-10-17T11:18:14.623Z,16.60
2018-10-17T11:20:43.331Z,16.48
2018-10-17T11:23:12.837Z,16.41
2018-10-17T11:25:41.542Z,16.37
2018-10-17T11:28:10.247Z,16.33
2018-10-17T11:30:38.927Z,16.35
2018-10-17T11:33:07.669Z,16.42
2018-10-17T11:35:36.379Z,16.52
2018-10-17T11:38:05.196Z,16.62
2018-10-17T11:40:33.984Z,16.68
2018-10-17T11:43:02.711Z,16.73
2018-10-17T11:45:31.416Z,16.82
2018-10-17T11:48:00.129Z,16.91
2018-10-17T11:50:28.893Z,17.00
2018-10-17T11:52:59.416Z,17.05
2018-10-17T11:55:28.121Z,17.11
2018-10-17T11:57:56.817Z,17.23
2018-10-17T12:00:25.526Z,17.39
2018-10-17T12:02:54.310Z,17.62
2018-10-17T12:05:23.239Z,17.73
2018-10-17T12:07:51.710Z,17.79
2018-10-17T12:10:20.400Z,17.84
2018-10-17T12:12:49.115Z,17.91
2018-10-17T12:15:17.934Z,18.10
2018-10-17T12:17:46.545Z,18.32
2018-10-17T12:20:15.930Z,18.44
2018-10-17T12:22:45.344Z,18.47
2018-10-17T12:25:14.632Z,18.48
2018-10-17T12:27:43.375Z,18.46
2018-10-17T12:30:15.146Z,18.48
2018-10-17T12:32:43.852Z,18.55
2018-10-17T12:35:13.041Z,18.64
2018-10-17T12:37:41.692Z,18.67
2018-10-17T12:40:11.355Z,18.64
2018-10-17T12:42:40.015Z,18.65
2018-10-17T12:45:08.780Z,18.77
2018-10-17T12:47:37.436Z,18.95
2018-10-17T12:50:07.367Z,19.03
2018-10-17T12:52:36.149Z,19.15
2018-10-17T12:55:05.710Z,19.17
2018-10-17T12:57:34.352Z,19.22
2018-10-17T13:00:03.121Z,19.16
2018-10-17T13:02:31.853Z,19.25
2018-10-17T13:05:00.609Z,19.42
2018-10-17T13:07:29.336Z,19.55
2018-10-17T13:09:58.049Z,19.74
2018-10-17T13:12:26.735Z,19.69
2018-10-17T13:14:55.496Z,19.79
2018-10-17T13:17:24.236Z,19.93
2018-10-17T13:19:52.940Z,20.01
2018-10-17T13:22:21.608Z,20.18
2018-10-17T13:24:50.323Z,20.23
2018-10-17T13:27:19.089Z,20.16
2018-10-17T13:29:47.790Z,20.14
2018-10-17T13:32:16.448Z,20.28
2018-10-17T13:34:45.164Z,20.29
2018-10-17T13:37:14.012Z,20.22
2018-10-17T13:39:42.760Z,20.27
2018-10-17T13:42:11.590Z,20.26
2018-10-17T13:44:40.257Z,20.33
2018-10-17T13:47:09.058Z,20.36
2018-10-17T13:49:37.853Z,20.32
2018-10-17T13:52:06.652Z,20.37
2018-10-17T13:54:35.389Z,20.42
2018-10-17T13:57:04.176Z,20.46
2018-10-17T13:59:32.917Z,20.31
2018-10-17T14:02:01.678Z,20.21
2018-10-17T14:04:30.409Z,20.22
2018-10-17T14:06:59.161Z,20.31
2018-10-17T14:09:27.902Z,20.17
2018-10-17T14:11:57.971Z,20.14
2018-10-17T14:14:26.669Z,20.11
2018-10-17T14:16:55.387Z,20.03
2018-10-17T14:19:24.124Z,19.96
2018-10-17T14:21:52.845Z,19.90
2018-10-17T14:24:21.562Z,19.87
2018-10-17T14:26:50.268Z,19.82
2018-10-17T14:29:19.125Z,19.75
2018-10-17T14:31:47.816Z,19.71
2018-10-17T14:34:16.582Z,19.53
2018-10-17T14:36:45.272Z,19.40
2018-10-17T14:39:13.998Z,19.36
2018-10-17T14:41:42.710Z,19.26
2018-10-17T14:44:11.425Z,19.14
2018-10-17T14:46:40.298Z,18.98
2018-10-17T14:49:09.008Z,18.87
2018-10-17T14:51:37.696Z,18.85
2018-10-17T14:54:06.693Z,18.82
2018-10-17T14:56:35.414Z,18.75
2018-10-17T14:59:04.187Z,18.62
2018-10-17T15:01:32.868Z,18.40
2018-10-17T15:04:01.582Z,18.22
2018-10-17T15:06:30.284Z,18.15
2018-10-17T15:08:58.996Z,18.05
2018-10-17T15:11:27.818Z,17.94
2018-10-17T15:13:56.506Z,17.88
2018-10-17T15:16:25.224Z,17.75
2018-10-17T15:18:53.970Z,17.69
2018-10-17T15:21:22.687Z,17.60
2018-10-17T15:23:51.459Z,17.52
2018-10-17T15:26:20.179Z,17.42
2018-10-17T15:28:49.730Z,17.36
2018-10-17T15:31:18.583Z,17.34
2018-10-17T15:33:47.555Z,17.32
2018-10-17T15:36:16.440Z,17.26
2018-10-17T15:38:45.133Z,17.21
2018-10-17T15:41:13.882Z,17.16
2018-10-17T15:43:42.896Z,17.08
2018-10-17T15:46:11.723Z,17.00
2018-10-17T15:48:40.505Z,16.92
2018-10-17T15:51:09.386Z,16.86
2018-10-17T15:53:38.099Z,16.81
2018-10-17T15:56:06.802Z,16.77
2018-10-17T15:58:35.526Z,16.73
2018-10-17T16:01:04.333Z,16.72
2018-10-17T16:03:33.028Z,16.73
2018-10-17T16:06:01.809Z,16.71
2018-10-17T16:08:30.529Z,16.71
2018-10-17T16:10:59.374Z,16.62
2018-10-17T16:13:28.104Z,16.60
2018-10-17T16:15:56.828Z,16.57
2018-10-17T16:18:25.557Z,16.52
2018-10-17T16:20:54.316Z,16.48
2018-10-17T16:23:23.152Z,16.47
2018-10-17T16:25:51.854Z,16.44
2018-10-17T16:28:20.659Z,16.43
2018-10-17T16:30:49.428Z,16.43
2018-10-17T16:33:18.141Z,16.41
2018-10-17T16:35:46.955Z,16.33
2018-10-17T16:38:15.758Z,16.33
2018-10-17T16:40:44.467Z,16.29
2018-10-17T16:43:13.241Z,16.19
2018-10-17T16:45:42.002Z,16.14
2018-10-17T16:48:10.957Z,16.08
2018-10-17T16:50:39.695Z,16.04
2018-10-17T16:53:08.312Z,15.98
2018-10-17T16:55:37.088Z,15.91
2018-10-17T16:58:05.952Z,15.84
2018-10-17T17:00:34.796Z,15.78
2018-10-17T17:03:03.512Z,15.73
2018-10-17T17:05:32.228Z,15.67
2018-10-17T17:08:01.009Z,15.60
2018-10-17T17:10:29.792Z,15.53
2018-10-17T17:12:58.556Z,15.48
2018-10-17T17:15:27.337Z,15.42
2018-10-17T17:17:56.140Z,15.36
2018-10-17T17:20:24.911Z,15.30
2018-10-17T17:22:53.778Z,15.25
2018-10-17T17:25:22.445Z,15.21
2018-10-17T17:27:51.261Z,15.15
2018-10-17T17:30:20.399Z,15.12
2018-10-17T17:32:49.468Z,15.07
2018-10-17T17:37:46.847Z,14.97
2018-10-17T17:40:15.828Z,14.94
2018-10-17T17:42:44.483Z,14.90
2018-10-17T17:45:13.182Z,14.87
2018-10-17T17:47:41.887Z,14.82
2018-10-17T17:50:18.120Z,14.79
2018-10-17T17:52:46.794Z,14.75
2018-10-17T17:55:15.493Z,14.71
2018-10-17T17:57:44.210Z,14.69
2018-10-17T18:00:12.945Z,14.64
2018-10-17T18:02:41.641Z,14.61
2018-10-17T18:05:10.380Z,14.58
2018-10-17T18:07:39.080Z,14.57
2018-10-17T18:10:08.283Z,14.55
2018-10-17T18:12:37.016Z,14.53
2018-10-17T18:15:06.720Z,14.49
2018-10-17T18:17:35.396Z,14.47
2018-10-17T18:20:06.983Z,14.45
2018-10-17T18:22:35.888Z,14.43
2018-10-17T18:25:04.755Z,14.41
2018-10-17T18:27:33.578Z,14.40
2018-10-17T18:30:02.373Z,14.37
2018-10-17T18:32:31.094Z,14.36
2018-10-17T18:34:59.815Z,14.35
2018-10-17T18:37:28.517Z,14.33
2018-10-17T18:39:57.264Z,14.30
2018-10-17T18:42:25.963Z,14.27
2018-10-17T18:44:54.649Z,14.26
2018-10-17T18:47:23.331Z,14.22
2018-10-17T18:49:52.015Z,14.22
2018-10-17T18:52:20.726Z,14.23
2018-10-17T18:54:49.415Z,14.20
2018-10-17T18:57:18.191Z,14.20
2018-10-17T18:59:46.838Z,14.19
2018-10-17T19:02:15.532Z,14.16
2018-10-17T19:04:44.239Z,14.15
2018-10-17T19:07:12.927Z,14.12
2018-10-17T19:09:41.657Z,14.11
2018-10-17T19:12:10.352Z,14.09
2018-10-17T19:14:39.044Z,14.08
2018-10-17T19:17:07.752Z,14.08
2018-10-17T19:19:36.481Z,14.05
2018-10-17T19:22:05.817Z,14.02
2018-10-17T19:24:34.523Z,14.02
2018-10-17T19:27:03.243Z,14.01
2018-10-17T19:29:31.961Z,14.00
2018-10-17T19:32:00.669Z,13.99
2018-10-17T19:34:29.364Z,13.97
2018-10-17T19:36:58.068Z,13.95
2018-10-17T19:39:26.750Z,13.94
2018-10-17T19:41:55.534Z,13.92
2018-10-17T19:44:24.208Z,13.90
2018-10-17T19:46:52.879Z,13.89
2018-10-17T19:49:21.559Z,13.86
2018-10-17T19:51:50.217Z,13.85
2018-10-17T19:54:18.904Z,13.83
2018-10-17T19:56:47.581Z,13.83
2018-10-17T19:59:16.286Z,13.81
2018-10-17T20:01:45.016Z,13.78
2018-10-17T20:04:13.701Z,13.75
2018-10-17T20:06:42.396Z,13.71
2018-10-17T20:09:11.781Z,13.69
2018-10-17T20:11:40.417Z,13.67
2018-10-17T20:14:09.769Z,13.65
2018-10-17T20:16:38.456Z,13.63
2018-10-17T20:19:07.158Z,13.61
2018-10-17T20:21:35.836Z,13.59
2018-10-17T20:24:04.562Z,13.59
2018-10-17T20:26:33.268Z,13.57
2018-10-17T20:29:02.055Z,13.51
2018-10-17T20:31:30.828Z,13.52
2018-10-17T20:33:59.638Z,13.48
2018-10-17T20:36:28.431Z,13.47
2018-10-17T20:38:57.201Z,13.44
2018-10-17T20:41:25.982Z,13.39
2018-10-17T20:43:54.755Z,13.40
2018-10-17T20:46:23.618Z,13.38
2018-10-17T20:48:52.387Z,13.36
2018-10-17T20:51:21.137Z,13.31
2018-10-17T20:53:49.900Z,13.33
2018-10-17T20:56:18.911Z,13.31
2018-10-17T20:58:47.583Z,13.29
2018-10-17T21:01:16.306Z,13.27
2018-10-17T21:03:45.005Z,13.25
2018-10-17T21:06:13.725Z,13.19
2018-10-17T21:08:42.432Z,13.20
2018-10-17T21:11:11.164Z,13.18
2018-10-17T21:13:39.833Z,13.17
2018-10-17T21:16:08.562Z,13.17
2018-10-17T21:18:37.298Z,13.16
2018-10-17T21:21:06.359Z,13.16
2018-10-17T21:23:35.039Z,13.12
2018-10-17T21:26:03.730Z,13.11
2018-10-17T21:28:32.451Z,13.10
2018-10-17T21:31:01.204Z,13.12
2018-10-17T21:33:29.936Z,13.11
2018-10-17T21:35:58.660Z,13.06
2018-10-17T21:38:27.344Z,13.07
2018-10-17T21:40:56.048Z,13.07
2018-10-17T21:43:24.724Z,13.05
2018-10-17T21:45:53.419Z,13.04
2018-10-17T21:48:22.204Z,13.02
2018-10-17T21:50:51.055Z,13.00
2018-10-17T21:53:19.737Z,12.99
2018-10-17T21:55:48.415Z,12.98
2018-10-17T21:58:17.122Z,12.97
2018-10-17T22:00:45.824Z,12.96
2018-10-17T22:03:14.505Z,12.97
2018-10-17T22:05:43.248Z,12.95
2018-10-17T22:08:12.088Z,12.94
2018-10-17T22:10:40.690Z,12.93
2018-10-17T22:13:09.391Z,12.89
2018-10-17T22:15:38.056Z,12.88
2018-10-17T22:18:07.061Z,12.86
2018-10-17T22:20:35.760Z,12.84
2018-10-17T22:23:04.493Z,12.84
2018-10-17T22:25:33.168Z,12.82
2018-10-17T22:28:01.856Z,12.82
2018-10-17T22:30:30.644Z,12.82
2018-10-17T22:32:59.304Z,12.80
2018-10-17T22:35:27.993Z,12.80
2018-10-17T22:37:56.717Z,12.79
2018-10-17T22:40:25.363Z,12.79
2018-10-17T22:42:54.115Z,12.78
2018-10-17T22:45:22.784Z,12.77
2018-10-17T22:47:51.467Z,12.76
2018-10-17T22:50:20.248Z,12.75
2018-10-17T22:52:48.947Z,12.73
2018-10-17T22:55:17.639Z,12.70
2018-10-17T22:57:46.327Z,12.65
2018-10-17T23:00:15.040Z,12.62
2018-10-17T23:02:43.713Z,12.60
2018-10-17T23:05:12.383Z,12.56
2018-10-17T23:07:41.053Z,12.54
2018-10-17T23:10:09.766Z,12.52
2018-10-17T23:12:42.425Z,12.49
2018-10-17T23:15:13.761Z,12.46
2018-10-17T23:17:42.437Z,12.44
2018-10-17T23:20:11.293Z,12.41
2018-10-17T23:22:41.265Z,12.40
2018-10-17T23:25:11.285Z,12.34
2018-10-17T23:27:40.388Z,12.29
2018-10-17T23:30:10.106Z,12.28
2018-10-17T23:32:39.180Z,12.24
2018-10-17T23:35:07.892Z,12.26
2018-10-17T23:37:36.632Z,12.26
2018-10-17T23:40:05.783Z,12.25
2018-10-17T23:42:34.573Z,12.24
2018-10-17T23:45:03.208Z,12.24
2018-10-17T23:47:31.907Z,12.20
2018-10-17T23:50:00.598Z,12.23
2018-10-17T23:52:29.291Z,12.22
2018-10-17T23:54:57.986Z,12.23
2018-10-17T23:57:26.670Z,12.18
2018-10-17T23:59:55.371Z,12.18
